Paynes Store, North Carolina
Current Conditions -  °F | °C
As of 2:53 PM on Thursday 30 Oct 2014 (Local Time) from KHKY Reporting Station
Clear Clear  
Wind Chill: 63°   Ceiling: Unl
Heat Index: 63°   Visibility: 10mi
Dew Point: 35°   Wind: 0mph
Humidity: 35%   Direction: NA
Pressure: 29.99"   Gusts: NA
Location:  35.9243°N, 81.216°W
Report Text: KHKY 301853Z 00000KT 10SM CLR 17/02 A2999 RMK AO2 SLP142 T01720017
Loading
Personal Weather Stations






























Interactive Weather Map
Tropical Storm Tracking
New forecast layout! Learn more

10-Day Weather Forecast

Advertisements
Track Severe Weather on mobile